Weather at Points North Landing Airport

Public forecast

Using degrees Celsius for public forecast. Weather courtesy of forecast.io.

Closest aviation weather report (METAR) to Points North Landing Airport

Closest report is Key Lake Airport, 78.6 nm (145.5 km) SW. Retrieved 2021/03/06 16:37 UTC (0 seconds ago):

CYKJ 061637Z AUTO 19011G16KT 6SM BR OVC006 M00/M01 A2954 RMK SLP033

Closest aviation forecast (TAF) to Points North Landing Airport

Closest forecast is Key Lake Airport, 78.6 nm (145.5 km) SW. Retrieved 2021/03/06 13:00 UTC (3 hours ago):

TAF CYKJ 061238Z 0613/0624 18010G20KT P6SM OVC012 TEMPO 0613/0621 3SM -SN OVC008 PROB30 0613/0618 2SM -FZDZ BR OVC006 FM062100 21008KT P6SM BKN020 OVC080 TEMPO 0621/0624 SCT020 BKN080 RMK FCST BASED ON AUTO OBS NXT FCST BY 061900Z